sensor_id;sensor_type;location;lat;lon;timestamp;temperature;humidity
15298;DHT22;7750;48.796;9.026;2023-04-07T18:27:10;13.40;64.50
15298;DHT22;7750;48.796;9.026;2023-04-07T18:32:11;13.30;64.80
15298;DHT22;7750;48.796;9.026;2023-04-07T18:37:18;13.30;65.30
15298;DHT22;7750;48.796;9.026;2023-04-07T18:42:19;13.20;65.40
15298;DHT22;7750;48.796;9.026;2023-04-07T18:47:26;13.90;65.20
15298;DHT22;7750;48.796;9.026;2023-04-07T18:52:29;13.60;64.90
15298;DHT22;7750;48.796;9.026;2023-04-07T18:57:29;13.40;64.90
15298;DHT22;7750;48.796;9.026;2023-04-07T19:02:37;13.30;65.10
15298;DHT22;7750;48.796;9.026;2023-04-07T19:07:43;13.20;65.50
15298;DHT22;7750;48.796;9.026;2023-04-07T19:12:47;13.10;65.50
15298;DHT22;7750;48.796;9.026;2023-04-07T19:17:47;13.10;66.00
15298;DHT22;7750;48.796;9.026;2023-04-07T19:22:48;13.00;66.10
15298;DHT22;7750;48.796;9.026;2023-04-07T19:27:52;13.00;66.70
15298;DHT22;7750;48.796;9.026;2023-04-07T19:32:59;12.90;67.10
15298;DHT22;7750;48.796;9.026;2023-04-07T19:37:59;12.90;67.90
15298;DHT22;7750;48.796;9.026;2023-04-07T19:43:04;12.80;67.70
15298;DHT22;7750;48.796;9.026;2023-04-07T19:48:08;12.80;68.10
15298;DHT22;7750;48.796;9.026;2023-04-07T19:53:19;12.70;68.70
15298;DHT22;7750;48.796;9.026;2023-04-07T19:58:21;12.60;69.10
15298;DHT22;7750;48.796;9.026;2023-04-07T20:03:29;12.60;68.90
15298;DHT22;7750;48.796;9.026;2023-04-07T20:08:39;12.50;70.20
15298;DHT22;7750;48.796;9.026;2023-04-07T20:13:58;12.50;69.80
15298;DHT22;7750;48.796;9.026;2023-04-07T20:19:09;12.50;69.40
15298;DHT22;7750;48.796;9.026;2023-04-07T20:24:10;12.60;70.00
15298;DHT22;7750;48.796;9.026;2023-04-07T20:29:20;12.50;69.50
15298;DHT22;7750;48.796;9.026;2023-04-07T20:34:27;12.50;69.60
15298;DHT22;7750;48.796;9.026;2023-04-07T20:44:38;12.40;69.10
15298;DHT22;7750;48.796;9.026;2023-04-07T20:49:44;12.40;69.00
15298;DHT22;7750;48.796;9.026;2023-04-07T20:54:45;12.30;69.00
15298;DHT22;7750;48.796;9.026;2023-04-07T20:59:47;12.30;69.00
15298;DHT22;7750;48.796;9.026;2023-04-07T21:04:56;12.30;69.30
15298;DHT22;7750;48.796;9.026;2023-04-07T21:09:59;12.30;69.60
15298;DHT22;7750;48.796;9.026;2023-04-07T21:15:06;12.20;69.70
15298;DHT22;7750;48.796;9.026;2023-04-07T21:20:13;12.20;70.10
15298;DHT22;7750;48.796;9.026;2023-04-07T21:25:17;12.20;70.20
15298;DHT22;7750;48.796;9.026;2023-04-07T21:30:18;12.20;70.20
15298;DHT22;7750;48.796;9.026;2023-04-07T21:35:20;12.20;70.10
15298;DHT22;7750;48.796;9.026;2023-04-07T21:40:26;12.10;69.90
15298;DHT22;7750;48.796;9.026;2023-04-07T21:45:30;12.10;70.40
15298;DHT22;7750;48.796;9.026;2023-04-07T21:50:31;12.10;70.60
15298;DHT22;7750;48.796;9.026;2023-04-07T21:55:32;12.10;70.80
15298;DHT22;7750;48.796;9.026;2023-04-07T22:00:40;12.10;70.90
15298;DHT22;7750;48.796;9.026;2023-04-07T22:05:41;12.10;71.30
15298;DHT22;7750;48.796;9.026;2023-04-07T22:10:42;12.10;71.30
15298;DHT22;7750;48.796;9.026;2023-04-07T22:15:42;12.10;71.50
15298;DHT22;7750;48.796;9.026;2023-04-07T22:20:43;12.10;71.60
15298;DHT22;7750;48.796;9.026;2023-04-07T22:25:45;12.10;71.80
15298;DHT22;7750;48.796;9.026;2023-04-07T22:30:45;12.10;71.90
15298;DHT22;7750;48.796;9.026;2023-04-07T22:35:46;12.10;72.00
15298;DHT22;7750;48.796;9.026;2023-04-07T22:40:47;12.10;72.10
15298;DHT22;7750;48.796;9.026;2023-04-07T22:45:47;12.10;72.20
15298;DHT22;7750;48.796;9.026;2023-04-07T22:50:48;12.10;72.30
15298;DHT22;7750;48.796;9.026;2023-04-07T22:55:49;12.10;72.40
15298;DHT22;7750;48.796;9.026;2023-04-07T23:00:50;12.10;72.50
15298;DHT22;7750;48.796;9.026;2023-04-07T23:05:51;12.10;72.50
15298;DHT22;7750;48.796;9.026;2023-04-07T23:10:51;12.20;72.60
15298;DHT22;7750;48.796;9.026;2023-04-07T23:15:52;12.10;72.60
15298;DHT22;7750;48.796;9.026;2023-04-07T23:20:53;12.10;72.60
15298;DHT22;7750;48.796;9.026;2023-04-07T23:25:53;12.10;72.80
15298;DHT22;7750;48.796;9.026;2023-04-07T23:30:54;12.10;73.10
15298;DHT22;7750;48.796;9.026;2023-04-07T23:35:56;12.10;73.20
15298;DHT22;7750;48.796;9.026;2023-04-07T23:40:57;12.00;73.20
15298;DHT22;7750;48.796;9.026;2023-04-07T23:45:58;12.00;73.30
15298;DHT22;7750;48.796;9.026;2023-04-07T23:50:59;12.00;73.40
15298;DHT22;7750;48.796;9.026;2023-04-07T23:56:00;12.00;73.50
